Time,TemperatureF,DewpointF,PressureIn,WindDirection,WindDirectionDegrees,WindSpeedMPH,WindSpeedGustMPH,Humidity,HourlyPrecipIn,Conditions,Clouds,dailyrainin,SoftwareType,DateUTC
2013-03-14 00:03:00,59.0,53.5,30.07,West,278,0.0,0.0,82,0.00,CLR,,0.00,WeatherDisplay:10.37,2013-03-14 07:03:00,
2013-03-14 00:08:00,58.8,53.3,30.07,West,278,0.0,0.0,82,0.00,CLR,,0.00,WeatherDisplay:10.37,2013-03-14 07:08:00,
2013-03-14 00:13:00,58.5,53.0,30.07,West,278,0.0,0.0,82,0.00,CLR,,0.00,WeatherDisplay:10.37,2013-03-14 07:13:00,
2013-03-14 00:18:00,58.1,52.6,30.07,West,278,0.0,0.0,82,0.00,CLR,,0.00,WeatherDisplay:10.37,2013-03-14 07:18:00,
2013-03-14 00:23:00,57.7,52.6,30.07,West,278,0.0,0.0,83,0.00,CLR,,0.00,WeatherDisplay:10.37,2013-03-14 07:23:00,
2013-03-14 00:28:00,57.5,52.7,30.08,West,278,0.0,0.0,84,0.00,CLR,,0.00,WeatherDisplay:10.37,2013-03-14 07:28:00,
2013-03-14 00:33:00,57.3,52.8,30.07,West,278,0.0,0.0,85,0.00,CLR,,0.00,WeatherDisplay:10.37,2013-03-14 07:33:00,
2013-03-14 00:38:00,57.1,52.6,30.08,West,278,0.0,0.0,85,0.00,CLR,,0.00,WeatherDisplay:10.37,2013-03-14 07:38:00,
2013-03-14 00:43:00,56.8,52.3,30.08,West,278,0.0,0.0,85,0.00,CLR,,0.00,WeatherDisplay:10.37,2013-03-14 07:43:00,
2013-03-14 00:48:00,56.5,52.4,30.08,West,278,0.0,0.0,86,0.00,CLR,,0.00,WeatherDisplay:10.37,2013-03-14 07:48:00,
2013-03-14 00:53:00,56.3,52.2,30.08,West,278,0.0,0.0,86,0.00,CLR,,0.00,WeatherDisplay:10.37,2013-03-14 07:53:00,
2013-03-14 00:58:00,56.2,52.4,30.08,West,278,0.0,0.0,87,0.00,CLR,,0.00,WeatherDisplay:10.37,2013-03-14 07:58:00,
2013-03-14 01:03:00,55.9,52.1,30.08,West,278,0.0,0.0,87,0.00,CLR,,0.00,WeatherDisplay:10.37,2013-03-14 08:03:00,
2013-03-14 01:08:00,55.7,51.9,30.08,West,278,0.0,0.0,87,0.00,CLR,,0.00,WeatherDisplay:10.37,2013-03-14 08:08:00,
2013-03-14 01:13:00,55.4,51.6,30.08,West,278,0.0,0.0,87,0.00,CLR,,0.00,WeatherDisplay:10.37,2013-03-14 08:13:00,
2013-03-14 01:18:00,55.1,51.3,30.08,West,279,0.0,0.0,87,0.00,CLR,,0.00,WeatherDisplay:10.37,2013-03-14 08:18:00,
2013-03-14 01:23:00,55.0,51.2,30.08,West,278,0.0,0.0,87,0.00,CLR,,0.00,WeatherDisplay:10.37,2013-03-14 08:23:00,
2013-03-14 01:28:00,54.7,50.9,30.08,West,278,0.0,0.0,87,0.00,CLR,,0.00,WeatherDisplay:10.37,2013-03-14 08:28:00,
2013-03-14 01:33:00,54.8,51.6,30.08,West,278,0.0,0.0,89,0.00,CLR,,0.00,WeatherDisplay:10.37,2013-03-14 08:33:00,
2013-03-14 01:38:00,54.7,51.5,30.08,West,278,0.0,0.0,89,0.00,CLR,,0.00,WeatherDisplay:10.37,2013-03-14 08:38:00,
2013-03-14 01:43:00,54.5,51.0,30.08,West,278,0.0,0.0,88,0.00,CLR,,0.00,WeatherDisplay:10.37,2013-03-14 08:43:00,
2013-03-14 01:48:00,54.4,51.2,30.08,West,279,0.0,0.0,89,0.00,CLR,,0.00,WeatherDisplay:10.37,2013-03-14 08:48:00,
2013-03-14 01:53:00,54.3,51.4,30.08,West,278,0.0,0.0,90,0.00,CLR,,0.00,WeatherDisplay:10.37,2013-03-14 08:53:00,
2013-03-14 01:58:00,54.4,51.5,30.08,West,278,0.0,0.0,90,0.00,CLR,,0.00,WeatherDisplay:10.37,2013-03-14 08:58:00,
2013-03-14 02:03:00,54.8,52.2,30.08,West,278,0.0,0.0,91,0.00,CLR,,0.00,WeatherDisplay:10.37,2013-03-14 09:03:00,
2013-03-14 02:08:00,55.2,52.3,30.08,West,278,0.0,0.0,90,0.00,CLR,,0.00,WeatherDisplay:10.37,2013-03-14 09:08:00,
2013-03-14 02:13:00,55.5,52.3,30.08,West,278,0.0,0.0,89,0.00,CLR,,0.00,WeatherDisplay:10.37,2013-03-14 09:13:00,
2013-03-14 02:18:00,55.8,52.3,30.08,West,278,0.0,0.0,88,0.00,CLR,,0.00,WeatherDisplay:10.37,2013-03-14 09:18:00,
2013-03-14 02:23:00,55.8,52.0,30.07,West,278,0.0,0.0,87,0.00,CLR,,0.00,WeatherDisplay:10.37,2013-03-14 09:23:00,
2013-03-14 02:28:00,55.7,51.6,30.07,West,278,0.0,0.0,86,0.00,CLR,,0.00,WeatherDisplay:10.37,2013-03-14 09:28:00,
2013-03-14 02:33:00,55.6,51.5,30.07,West,278,0.0,0.0,86,0.00,CLR,,0.00,WeatherDisplay:10.37,2013-03-14 09:33:00,
2013-03-14 02:38:00,55.5,51.4,30.07,West,278,0.0,0.0,86,0.00,CLR,,0.00,WeatherDisplay:10.37,2013-03-14 09:38:00,
2013-03-14 02:43:00,55.3,51.2,30.07,West,278,0.0,0.0,86,0.00,CLR,,0.00,WeatherDisplay:10.37,2013-03-14 09:43:00,
2013-03-14 02:48:00,55.0,50.9,30.07,West,278,0.0,0.0,86,0.00,CLR,,0.00,WeatherDisplay:10.37,2013-03-14 09:48:00,
2013-03-14 02:53:00,54.8,50.7,30.07,West,278,0.0,0.0,86,0.00,CLR,,0.00,WeatherDisplay:10.37,2013-03-14 09:53:00,
2013-03-14 02:58:00,54.6,50.8,30.07,West,278,0.0,0.0,87,0.00,CLR,,0.00,WeatherDisplay:10.37,2013-03-14 09:58:00,
2013-03-14 03:03:00,54.4,50.6,30.07,West,278,0.0,0.0,87,0.00,CLR,,0.00,WeatherDisplay:10.37,2013-03-14 10:03:00,
2013-03-14 03:08:00,54.1,50.3,30.07,West,279,0.0,0.0,87,0.00,CLR,,0.00,WeatherDisplay:10.37,2013-03-14 10:08:00,
2013-03-14 03:13:00,53.9,50.1,30.07,West,278,0.0,0.0,87,0.00,CLR,,0.00,WeatherDisplay:10.37,2013-03-14 10:13:00,
2013-03-14 03:18:00,53.8,50.3,30.06,West,278,0.0,0.0,88,0.00,CLR,,0.00,WeatherDisplay:10.37,2013-03-14 10:18:00,
2013-03-14 03:23:00,53.7,50.2,30.06,West,278,0.0,0.0,88,0.00,CLR,,0.00,WeatherDisplay:10.37,2013-03-14 10:23:00,
2013-03-14 03:28:00,53.6,50.1,30.06,West,278,0.0,0.0,88,0.00,CLR,,0.00,WeatherDisplay:10.37,2013-03-14 10:28:00,
2013-03-14 03:33:00,53.5,50.0,30.06,West,278,0.0,0.0,88,0.00,CLR,,0.00,WeatherDisplay:10.37,2013-03-14 10:33:00,
2013-03-14 03:38:00,53.5,50.0,30.06,West,278,0.0,0.0,88,0.00,CLR,,0.00,WeatherDisplay:10.37,2013-03-14 10:38:00,
2013-03-14 03:43:00,53.6,50.1,30.06,West,278,0.0,0.0,88,0.00,CLR,,0.00,WeatherDisplay:10.37,2013-03-14 10:43:00,
2013-03-14 03:48:00,53.4,49.9,30.06,West,278,0.0,0.0,88,0.00,CLR,,0.00,WeatherDisplay:10.37,2013-03-14 10:48:00,
2013-03-14 03:53:00,53.4,49.9,30.06,West,278,0.0,0.0,88,0.00,CLR,,0.00,WeatherDisplay:10.37,2013-03-14 10:53:00,
2013-03-14 03:58:00,53.4,49.9,30.06,West,278,0.0,0.0,88,0.00,CLR,,0.00,WeatherDisplay:10.37,2013-03-14 10:58:00,
2013-03-14 04:03:00,53.3,49.8,30.06,West,278,0.0,0.0,88,0.00,CLR,,0.00,WeatherDisplay:10.37,2013-03-14 11:03:00,
2013-03-14 04:08:00,53.2,49.7,30.06,West,278,0.0,0.0,88,0.00,CLR,,0.00,WeatherDisplay:10.37,2013-03-14 11:08:00,
2013-03-14 04:13:00,53.0,49.5,30.06,West,278,0.0,0.0,88,0.00,CLR,,0.00,WeatherDisplay:10.37,2013-03-14 11:13:00,
2013-03-14 04:18:00,52.8,49.3,30.06,West,278,0.0,0.0,88,0.00,CLR,,0.00,WeatherDisplay:10.37,2013-03-14 11:18:00,
2013-03-14 04:23:00,52.6,49.1,30.06,West,278,0.0,0.0,88,0.00,CLR,,0.00,WeatherDisplay:10.37,2013-03-14 11:23:00,
2013-03-14 04:28:00,52.5,49.0,30.06,West,278,0.0,0.0,88,0.00,CLR,,0.00,WeatherDisplay:10.37,2013-03-14 11:28:00,
2013-03-14 04:33:00,52.4,48.9,30.06,West,278,0.0,0.0,88,0.00,CLR,,0.00,WeatherDisplay:10.37,2013-03-14 11:33:00,
2013-03-14 04:38:00,52.3,49.2,30.06,West,278,0.0,0.0,89,0.00,CLR,,0.00,WeatherDisplay:10.37,2013-03-14 11:38:00,
2013-03-14 04:43:00,52.2,49.1,30.06,West,278,0.0,0.0,89,0.00,CLR,,0.00,WeatherDisplay:10.37,2013-03-14 11:43:00,
2013-03-14 04:48:00,52.1,49.0,30.06,West,278,0.0,0.0,89,0.00,CLR,,0.00,WeatherDisplay:10.37,2013-03-14 11:48:00,
2013-03-14 04:53:00,51.9,48.8,30.06,West,279,0.0,0.0,89,0.00,CLR,,0.00,WeatherDisplay:10.37,2013-03-14 11:53:00,
2013-03-14 04:58:00,51.8,49.0,30.07,West,279,0.0,0.0,90,0.00,CLR,,0.00,WeatherDisplay:10.37,2013-03-14 11:58:00,
2013-03-14 05:03:00,51.7,48.9,30.07,West,278,0.0,0.0,90,0.00,CLR,,0.00,WeatherDisplay:10.37,2013-03-14 12:03:00,
2013-03-14 05:08:00,51.8,49.0,30.07,West,278,0.0,0.0,90,0.00,CLR,,0.00,WeatherDisplay:10.37,2013-03-14 12:08:00,
2013-03-14 05:13:00,51.8,48.7,30.07,West,278,0.0,0.0,89,0.00,CLR,,0.00,WeatherDisplay:10.37,2013-03-14 12:13:00,
2013-03-14 05:18:00,51.9,49.1,30.07,West,278,0.0,0.0,90,0.00,CLR,,0.00,WeatherDisplay:10.37,2013-03-14 12:18:00,
2013-03-14 05:23:00,51.9,48.8,30.07,West,278,0.0,0.0,89,0.00,CLR,,0.00,WeatherDisplay:10.37,2013-03-14 12:23:00,
2013-03-14 05:28:00,52.0,48.9,30.08,West,278,0.0,0.0,89,0.00,CLR,,0.00,WeatherDisplay:10.37,2013-03-14 12:28:00,
2013-03-14 05:33:00,51.9,48.8,30.07,West,278,0.0,0.0,89,0.00,CLR,,0.00,WeatherDisplay:10.37,2013-03-14 12:33:00,
2013-03-14 05:38:00,51.8,48.4,30.07,West,278,0.0,0.0,88,0.00,CLR,,0.00,WeatherDisplay:10.37,2013-03-14 12:38:00,
2013-03-14 05:43:00,51.8,48.4,30.08,West,278,0.0,0.0,88,0.00,CLR,,0.00,WeatherDisplay:10.37,2013-03-14 12:43:00,
2013-03-14 05:48:00,51.6,48.2,30.08,West,278,0.0,0.0,88,0.00,CLR,,0.00,WeatherDisplay:10.37,2013-03-14 12:48:00,
2013-03-14 05:53:00,51.3,47.9,30.08,West,278,0.0,0.0,88,0.00,CLR,,0.00,WeatherDisplay:10.37,2013-03-14 12:53:00,
2013-03-14 05:58:00,51.2,48.1,30.08,West,278,0.0,0.0,89,0.00,CLR,,0.00,WeatherDisplay:10.37,2013-03-14 12:58:00,
2013-03-14 06:03:00,51.2,48.1,30.08,West,278,0.0,0.0,89,0.00,CLR,,0.00,WeatherDisplay:10.37,2013-03-14 13:03:00,
2013-03-14 06:08:00,51.3,48.2,30.08,West,278,0.0,0.0,89,0.00,CLR,,0.00,WeatherDisplay:10.37,2013-03-14 13:08:00,
2013-03-14 06:13:00,51.2,48.1,30.08,West,278,0.0,0.0,89,0.00,CLR,,0.00,WeatherDisplay:10.37,2013-03-14 13:13:00,
2013-03-14 06:18:00,51.0,47.9,30.08,West,278,0.0,0.0,89,0.00,CLR,,0.00,WeatherDisplay:10.37,2013-03-14 13:18:00,
2013-03-14 06:23:00,50.9,48.1,30.08,West,278,0.0,0.0,90,0.00,CLR,,0.00,WeatherDisplay:10.37,2013-03-14 13:23:00,
2013-03-14 06:28:00,51.0,48.5,30.08,West,278,0.0,0.0,91,0.00,CLR,,0.00,WeatherDisplay:10.37,2013-03-14 13:28:00,
2013-03-14 06:33:00,50.9,48.1,30.08,West,278,0.0,0.0,90,0.00,CLR,,0.00,WeatherDisplay:10.37,2013-03-14 13:33:00,
2013-03-14 06:38:00,50.5,47.7,30.08,West,278,0.0,0.0,90,0.00,CLR,,0.00,WeatherDisplay:10.37,2013-03-14 13:38:00,
2013-03-14 06:43:00,50.2,47.1,30.08,West,278,0.0,0.0,89,0.00,CLR,,0.00,WeatherDisplay:10.37,2013-03-14 13:43:00,
2013-03-14 06:48:00,49.9,47.1,30.08,West,278,0.0,0.0,90,0.00,CLR,,0.00,WeatherDisplay:10.37,2013-03-14 13:48:00,
2013-03-14 06:53:00,50.0,47.5,30.08,West,278,0.0,0.0,91,0.00,CLR,,0.00,WeatherDisplay:10.37,2013-03-14 13:53:00,
2013-03-14 06:58:00,50.1,47.6,30.07,West,278,0.0,0.0,91,0.00,CLR,,0.00,WeatherDisplay:10.37,2013-03-14 13:58:00,
2013-03-14 07:03:00,49.9,47.4,30.07,West,278,0.0,0.0,91,0.00,CLR,,0.00,WeatherDisplay:10.37,2013-03-14 14:03:00,
2013-03-14 07:08:00,49.6,47.1,30.07,West,278,0.0,0.0,91,0.00,CLR,,0.00,WeatherDisplay:10.37,2013-03-14 14:08:00,
2013-03-14 07:13:00,49.4,46.9,30.07,West,278,0.0,0.0,91,0.00,CLR,,0.00,WeatherDisplay:10.37,2013-03-14 14:13:00,
2013-03-14 07:18:00,49.4,47.2,30.07,West,279,0.0,0.0,92,0.00,CLR,,0.00,WeatherDisplay:10.37,2013-03-14 14:18:00,
2013-03-14 07:23:00,49.4,47.2,30.07,West,278,0.0,0.0,92,0.00,CLR,,0.00,WeatherDisplay:10.37,2013-03-14 14:23:00,
2013-03-14 07:28:00,49.4,47.2,30.07,West,278,0.0,0.0,92,0.00,CLR,,0.00,WeatherDisplay:10.37,2013-03-14 14:28:00,
2013-03-14 07:33:00,49.7,47.8,30.07,West,278,0.0,0.0,93,0.00,CLR,,0.00,WeatherDisplay:10.37,2013-03-14 14:33:00,
2013-03-14 07:38:00,50.3,48.4,30.08,West,278,0.0,0.0,93,0.00,CLR,,0.00,WeatherDisplay:10.37,2013-03-14 14:38:00,
2013-03-14 07:43:00,50.5,48.6,30.08,West,278,0.0,0.0,93,0.00,CLR,,0.00,WeatherDisplay:10.37,2013-03-14 14:43:00,
2013-03-14 07:48:00,50.7,48.5,30.08,West,278,0.0,0.0,92,0.00,CLR,,0.00,WeatherDisplay:10.37,2013-03-14 14:48:00,
2013-03-14 07:53:00,50.9,48.7,30.08,West,278,0.0,0.0,92,0.00,CLR,,0.00,WeatherDisplay:10.37,2013-03-14 14:53:00,
2013-03-14 07:58:00,51.5,49.3,30.08,West,278,0.0,0.0,92,0.00,CLR,,0.00,WeatherDisplay:10.37,2013-03-14 14:58:00,
2013-03-14 08:03:00,51.8,49.5,30.08,West,278,0.0,0.0,92,0.00,CLR,,0.00,WeatherDisplay:10.37,2013-03-14 15:03:00,
2013-03-14 08:08:00,52.2,49.9,30.08,West,278,0.0,0.0,92,0.00,CLR,,0.00,WeatherDisplay:10.37,2013-03-14 15:08:00,
2013-03-14 08:13:00,52.7,50.4,30.08,West,278,0.0,0.0,92,0.00,CLR,,0.00,WeatherDisplay:10.37,2013-03-14 15:13:00,
2013-03-14 08:18:00,53.2,50.9,30.08,West,278,0.0,0.0,92,0.00,CLR,,0.00,WeatherDisplay:10.37,2013-03-14 15:18:00,
2013-03-14 08:23:00,53.7,51.4,30.08,West,278,0.0,0.0,92,0.00,CLR,,0.00,WeatherDisplay:10.37,2013-03-14 15:23:00,
2013-03-14 08:28:00,54.3,51.1,30.08,West,278,0.0,0.0,89,0.00,CLR,,0.00,WeatherDisplay:10.37,2013-03-14 15:28:00,
2013-03-14 08:33:00,55.0,51.5,30.08,West,278,0.0,0.0,88,0.00,CLR,,0.00,WeatherDisplay:10.37,2013-03-14 15:33:00,
2013-03-14 08:38:00,55.8,51.7,30.08,West,278,0.0,0.0,86,0.00,CLR,,0.00,WeatherDisplay:10.37,2013-03-14 15:38:00,
2013-03-14 08:43:00,56.6,52.1,30.08,West,278,0.0,0.0,85,0.00,CLR,,0.00,WeatherDisplay:10.37,2013-03-14 15:43:00,
2013-03-14 08:48:00,57.5,53.0,30.09,West,278,0.0,0.0,85,0.00,CLR,,0.00,WeatherDisplay:10.37,2013-03-14 15:48:00,
2013-03-14 08:53:00,58.3,53.5,30.09,West,278,0.0,0.0,84,0.00,CLR,,0.00,WeatherDisplay:10.37,2013-03-14 15:53:00,
2013-03-14 08:58:00,58.9,53.7,30.09,West,278,0.0,0.0,83,0.00,CLR,,0.00,WeatherDisplay:10.37,2013-03-14 15:58:00,
2013-03-14 09:03:00,59.5,54.0,30.09,West,278,0.0,0.0,82,0.00,CLR,,0.00,WeatherDisplay:10.37,2013-03-14 16:03:00,
2013-03-14 09:08:00,60.4,54.5,30.09,West,278,0.0,0.0,81,0.00,CLR,,0.00,WeatherDisplay:10.37,2013-03-14 16:08:00,
2013-03-14 09:13:00,61.2,54.6,30.09,West,278,1.2,0.0,79,0.00,CLR,,0.00,WeatherDisplay:10.37,2013-03-14 16:13:00,
2013-03-14 09:18:00,61.9,55.3,30.09,West,278,0.0,0.0,79,0.00,CLR,,0.00,WeatherDisplay:10.37,2013-03-14 16:18:00,
2013-03-14 09:23:00,62.7,55.4,30.09,West,279,1.2,0.0,77,0.00,CLR,,0.00,WeatherDisplay:10.37,2013-03-14 16:23:00,
2013-03-14 09:28:00,63.5,55.4,30.10,NW,315,1.2,1.2,75,0.00,CLR,,0.00,WeatherDisplay:10.37,2013-03-14 16:28:00,
2013-03-14 09:33:00,64.5,54.9,30.10,NNW,342,1.2,1.2,71,0.00,CLR,,0.00,WeatherDisplay:10.37,2013-03-14 16:33:00,
2013-03-14 09:38:00,65.4,55.0,30.09,ENE,63,0.0,0.0,69,0.00,CLR,,0.00,WeatherDisplay:10.37,2013-03-14 16:38:00,
2013-03-14 09:43:00,66.1,54.8,30.09,NW,322,0.0,0.0,67,0.00,CLR,,0.00,WeatherDisplay:10.37,2013-03-14 16:43:00,
2013-03-14 09:48:00,66.7,55.0,30.09,NW,325,0.0,0.0,66,0.00,CLR,,0.00,WeatherDisplay:10.37,2013-03-14 16:48:00,
2013-03-14 09:53:00,67.1,54.5,30.09,NNW,328,1.2,1.2,64,0.00,CLR,,0.00,WeatherDisplay:10.37,2013-03-14 16:53:00,
2013-03-14 09:58:00,67.6,54.6,30.09,NNW,328,0.0,0.0,63,0.00,CLR,,0.00,WeatherDisplay:10.37,2013-03-14 16:58:00,
2013-03-14 10:03:00,68.0,54.5,30.09,NNW,328,0.0,0.0,62,0.00,CLR,,0.00,WeatherDisplay:10.37,2013-03-14 17:03:00,
2013-03-14 10:08:00,68.3,54.3,30.09,NNW,328,0.0,0.0,61,0.00,CLR,,0.00,WeatherDisplay:10.37,2013-03-14 17:08:00,
2013-03-14 10:13:00,68.8,54.3,30.09,NNW,328,1.2,0.0,60,0.00,CLR,,0.00,WeatherDisplay:10.37,2013-03-14 17:13:00,
2013-03-14 10:18:00,69.3,54.8,30.09,NW,315,0.0,0.0,60,0.00,CLR,,0.00,WeatherDisplay:10.37,2013-03-14 17:18:00,
2013-03-14 10:23:00,69.7,54.7,30.09,NW,317,1.2,0.0,59,0.00,CLR,,0.00,WeatherDisplay:10.37,2013-03-14 17:23:00,
2013-03-14 10:28:00,70.0,54.1,30.09,NNW,335,2.3,2.3,57,0.00,CLR,,0.00,WeatherDisplay:10.37,2013-03-14 17:28:00,
2013-03-14 10:33:00,70.3,54.8,30.09,NNW,347,2.3,2.3,58,0.00,CLR,,0.00,WeatherDisplay:10.37,2013-03-14 17:33:00,
2013-03-14 10:38:00,70.6,54.6,30.09,North,349,1.2,1.2,57,0.00,CLR,,0.00,WeatherDisplay:10.37,2013-03-14 17:38:00,
2013-03-14 10:43:00,71.1,53.6,30.09,NNW,328,2.3,2.3,54,0.00,CLR,,0.00,WeatherDisplay:10.37,2013-03-14 17:43:00,
2013-03-14 10:48:00,71.2,53.7,30.09,NW,325,1.0,0.0,54,0.00,CLR,,0.00,WeatherDisplay:10.37,2013-03-14 17:48:00,
2013-03-14 10:53:00,71.5,55.0,30.09,West,263,1.2,1.2,56,0.00,CLR,,0.00,WeatherDisplay:10.37,2013-03-14 17:53:00,
2013-03-14 10:58:00,71.7,55.2,30.08,WNW,291,1.2,1.2,56,0.00,CLR,,0.00,WeatherDisplay:10.37,2013-03-14 17:58:00,
2013-03-14 11:03:00,71.9,55.8,30.08,WNW,288,1.2,1.2,57,0.00,CLR,,0.00,WeatherDisplay:10.37,2013-03-14 18:03:00,
2013-03-14 11:08:00,72.4,55.3,30.08,NNW,347,2.3,2.3,55,0.00,CLR,,0.00,WeatherDisplay:10.37,2013-03-14 18:08:00,
2013-03-14 11:13:00,72.8,55.2,30.08,NNW,347,1.2,1.2,54,0.00,CLR,,0.00,WeatherDisplay:10.37,2013-03-14 18:13:00,
2013-03-14 11:18:00,73.2,55.6,30.08,North,349,0.0,0.0,54,0.00,CLR,,0.00,WeatherDisplay:10.37,2013-03-14 18:18:00,
2013-03-14 11:23:00,73.5,55.3,30.08,NW,312,1.2,0.0,53,0.00,CLR,,0.00,WeatherDisplay:10.37,2013-03-14 18:23:00,
2013-03-14 11:28:00,73.9,55.2,30.07,North,9,1.2,1.2,52,0.00,CLR,,0.00,WeatherDisplay:10.37,2013-03-14 18:28:00,
2013-03-14 11:33:00,74.3,55.0,30.07,ENE,64,1.2,0.0,51,0.00,CLR,,0.00,WeatherDisplay:10.37,2013-03-14 18:33:00,
2013-03-14 11:38:00,74.7,55.4,30.07,ENE,61,1.2,1.2,51,0.00,CLR,,0.00,WeatherDisplay:10.37,2013-03-14 18:38:00,
2013-03-14 11:44:00,75.1,56.3,30.07,NNW,339,0.0,0.0,52,0.00,CLR,,0.00,WeatherDisplay:10.37,2013-03-14 18:44:00,
2013-03-14 11:49:00,75.7,54.0,30.07,NNW,345,3.5,3.5,47,0.00,CLR,,0.00,WeatherDisplay:10.37,2013-03-14 18:49:00,
2013-03-14 11:54:00,76.2,55.1,30.07,NNW,335,2.3,2.3,48,0.00,CLR,,0.00,WeatherDisplay:10.37,2013-03-14 18:54:00,
2013-03-14 11:59:00,76.7,55.5,30.07,NW,305,2.3,2.3,48,0.00,CLR,,0.00,WeatherDisplay:10.37,2013-03-14 18:59:00,
2013-03-14 12:04:00,77.5,55.7,30.07,SW,232,1.2,1.2,47,0.00,CLR,,0.00,WeatherDisplay:10.37,2013-03-14 19:04:00,
2013-03-14 12:09:00,78.2,56.9,30.07,NNW,339,1.2,1.2,48,0.00,CLR,,0.00,WeatherDisplay:10.37,2013-03-14 19:09:00,
2013-03-14 12:14:00,78.7,56.8,30.07,North,356,3.5,3.5,47,0.00,CLR,,0.00,WeatherDisplay:10.37,2013-03-14 19:14:00,
2013-03-14 12:19:00,79.4,57.4,30.07,WSW,252,3.5,3.5,47,0.00,CLR,,0.00,WeatherDisplay:10.37,2013-03-14 19:19:00,
2013-03-14 12:24:00,79.9,57.9,30.07,SSW,198,2.3,2.3,47,0.00,CLR,,0.00,WeatherDisplay:10.37,2013-03-14 19:24:00,
2013-03-14 12:29:00,79.9,57.3,30.06,South,172,2.3,2.3,46,0.00,CLR,,0.00,WeatherDisplay:10.37,2013-03-14 19:29:00,
2013-03-14 12:34:00,80.0,58.0,30.07,North,4,3.5,3.5,47,0.00,CLR,,0.00,WeatherDisplay:10.37,2013-03-14 19:34:00,
2013-03-14 12:39:00,80.5,57.8,30.06,SSE,162,1.2,1.2,46,0.00,CLR,,0.00,WeatherDisplay:10.37,2013-03-14 19:39:00,
2013-03-14 12:44:00,80.7,58.0,30.06,WSW,239,2.3,2.3,46,0.00,CLR,,0.00,WeatherDisplay:10.37,2013-03-14 19:44:00,
2013-03-14 12:49:00,80.5,59.0,30.07,WSW,255,1.2,1.2,48,0.00,CLR,,0.00,WeatherDisplay:10.37,2013-03-14 19:49:00,
2013-03-14 12:54:00,80.5,59.0,30.06,West,279,4.6,4.6,48,0.00,CLR,,0.00,WeatherDisplay:10.37,2013-03-14 19:54:00,
2013-03-14 12:59:00,80.2,58.7,30.06,NW,309,3.5,3.5,48,0.00,CLR,,0.00,WeatherDisplay:10.37,2013-03-14 19:59:00,
2013-03-14 13:04:00,80.3,60.0,30.06,WNW,300,1.2,1.2,50,0.00,CLR,,0.00,WeatherDisplay:10.37,2013-03-14 20:04:00,
2013-03-14 13:09:00,80.8,59.9,30.06,North,7,4.6,4.6,49,0.00,CLR,,0.00,WeatherDisplay:10.37,2013-03-14 20:09:00,
2013-03-14 13:14:00,81.0,60.0,30.05,WNW,290,2.3,2.3,49,0.00,CLR,,0.00,WeatherDisplay:10.37,2013-03-14 20:14:00,
2013-03-14 13:19:00,80.8,59.3,30.05,North,359,3.5,3.5,48,0.00,CLR,,0.00,WeatherDisplay:10.37,2013-03-14 20:19:00,
2013-03-14 13:24:00,80.8,59.9,30.05,SW,229,2.3,2.3,49,0.00,CLR,,0.00,WeatherDisplay:10.37,2013-03-14 20:24:00,
2013-03-14 13:29:00,81.0,60.0,30.05,WNW,288,2.3,2.3,49,0.00,CLR,,0.00,WeatherDisplay:10.37,2013-03-14 20:29:00,
2013-03-14 13:34:00,81.4,59.8,30.05,West,281,2.3,2.3,48,0.00,CLR,,0.00,WeatherDisplay:10.37,2013-03-14 20:34:00,
2013-03-14 13:39:00,81.3,58.5,30.04,West,271,3.5,3.5,46,0.00,CLR,,0.00,WeatherDisplay:10.37,2013-03-14 20:39:00,
2013-03-14 13:44:00,81.8,58.4,30.04,NNW,330,3.5,3.5,45,0.00,CLR,,0.00,WeatherDisplay:10.37,2013-03-14 20:44:00,
2013-03-14 13:49:00,82.3,58.8,30.04,NW,324,2.3,2.3,45,0.00,CLR,,0.00,WeatherDisplay:10.37,2013-03-14 20:49:00,
2013-03-14 13:54:00,82.5,58.4,30.04,NNW,339,1.2,1.2,44,0.00,CLR,,0.00,WeatherDisplay:10.37,2013-03-14 20:54:00,
2013-03-14 13:59:00,82.6,58.5,30.03,North,1,3.5,3.5,44,0.00,CLR,,0.00,WeatherDisplay:10.37,2013-03-14 20:59:00,
2013-03-14 14:04:00,83.0,60.1,30.04,NW,321,3.5,3.5,46,0.00,CLR,,0.00,WeatherDisplay:10.37,2013-03-14 21:04:00,
2013-03-14 14:09:00,83.2,59.6,30.03,West,277,3.5,3.5,45,0.00,CLR,,0.00,WeatherDisplay:10.37,2013-03-14 21:09:00,
2013-03-14 14:14:00,83.3,59.1,30.03,WNW,301,4.6,4.6,44,0.00,CLR,,0.00,WeatherDisplay:10.37,2013-03-14 21:14:00,
2013-03-14 14:19:00,83.2,59.6,30.03,WNW,300,3.5,3.5,45,0.00,CLR,,0.00,WeatherDisplay:10.37,2013-03-14 21:19:00,
2013-03-14 14:24:00,83.4,59.2,30.03,West,279,3.5,3.5,44,0.00,CLR,,0.00,WeatherDisplay:10.37,2013-03-14 21:24:00,
2013-03-14 14:29:00,83.8,59.6,30.03,SW,236,3.5,3.5,44,0.00,CLR,,0.00,WeatherDisplay:10.37,2013-03-14 21:29:00,
2013-03-14 14:34:00,84.1,59.2,30.03,WSW,252,2.3,2.3,43,0.00,CLR,,0.00,WeatherDisplay:10.37,2013-03-14 21:34:00,
2013-03-14 14:39:00,84.4,58.8,30.02,SW,232,3.5,3.5,42,0.00,CLR,,0.00,WeatherDisplay:10.37,2013-03-14 21:39:00,
2013-03-14 14:44:00,84.5,58.9,30.02,WNW,283,3.5,3.5,42,0.00,CLR,,0.00,WeatherDisplay:10.37,2013-03-14 21:44:00,
2013-03-14 14:49:00,84.7,58.4,30.02,NNW,341,2.3,2.3,41,0.00,CLR,,0.00,WeatherDisplay:10.37,2013-03-14 21:49:00,
2013-03-14 14:54:00,84.8,59.2,30.02,North,350,1.2,1.3,42,0.00,CLR,,0.00,WeatherDisplay:10.37,2013-03-14 21:54:00,
2013-03-14 14:59:00,85.1,58.8,30.02,North,5,2.3,2.3,41,0.00,CLR,,0.00,WeatherDisplay:10.37,2013-03-14 21:59:00,
2013-03-14 15:04:00,85.4,58.3,30.02,NW,319,3.5,3.5,40,0.00,CLR,,0.00,WeatherDisplay:10.37,2013-03-14 22:04:00,
2013-03-14 15:09:00,85.1,58.8,30.02,WNW,284,2.0,2.0,41,0.00,CLR,,0.00,WeatherDisplay:10.37,2013-03-14 22:09:00,
2013-03-14 15:14:00,84.8,59.2,30.02,West,273,2.3,2.3,42,0.00,CLR,,0.00,WeatherDisplay:10.37,2013-03-14 22:14:00,
2013-03-14 15:19:00,84.6,59.6,30.02,North,351,3.5,3.5,43,0.00,CLR,,0.00,WeatherDisplay:10.37,2013-03-14 22:19:00,
2013-03-14 15:24:00,84.3,60.0,30.02,WNW,285,3.5,3.5,44,0.00,CLR,,0.00,WeatherDisplay:10.37,2013-03-14 22:24:00,
2013-03-14 15:29:00,84.6,60.9,30.02,ENE,77,1.2,1.2,45,0.00,CLR,,0.00,WeatherDisplay:10.37,2013-03-14 22:29:00,
2013-03-14 15:34:00,84.8,60.5,30.01,WSW,246,3.0,3.0,44,0.00,CLR,,0.00,WeatherDisplay:10.37,2013-03-14 22:34:00,
2013-03-14 15:39:00,84.7,59.7,30.01,NNE,14,2.3,2.3,43,0.00,CLR,,0.00,WeatherDisplay:10.37,2013-03-14 22:39:00,
2013-03-14 15:44:00,84.8,59.8,30.01,SSW,195,3.5,3.5,43,0.00,CLR,,0.00,WeatherDisplay:10.37,2013-03-14 22:44:00,
2013-03-14 15:49:00,85.4,60.4,30.01,North,7,3.5,3.5,43,0.00,CLR,,0.00,WeatherDisplay:10.37,2013-03-14 22:49:00,
2013-03-14 15:54:00,85.6,59.2,30.01,West,269,3.5,3.5,41,0.00,CLR,,0.00,WeatherDisplay:10.37,2013-03-14 22:54:00,
2013-03-14 15:59:00,85.9,59.5,30.01,South,186,3.0,3.0,41,0.00,CLR,,0.00,WeatherDisplay:10.37,2013-03-14 22:59:00,
2013-03-14 16:04:00,86.2,59.0,30.01,WSW,252,2.3,2.3,40,0.00,CLR,,0.00,WeatherDisplay:10.37,2013-03-14 23:04:00,
2013-03-14 16:09:00,85.7,59.3,30.01,WNW,294,3.5,3.5,41,0.00,CLR,,0.00,WeatherDisplay:10.37,2013-03-14 23:09:00,
2013-03-14 16:14:00,85.2,58.8,30.01,West,274,2.3,2.3,41,0.00,CLR,,0.00,WeatherDisplay:10.37,2013-03-14 23:14:00,
2013-03-14 16:19:00,84.7,59.1,30.00,WNW,284,1.2,1.2,42,0.00,CLR,,0.00,WeatherDisplay:10.37,2013-03-14 23:19:00,
2013-03-14 16:24:00,84.5,58.9,30.00,West,267,2.3,2.3,42,0.00,CLR,,0.00,WeatherDisplay:10.37,2013-03-14 23:24:00,
2013-03-14 16:29:00,84.5,58.2,30.00,WSW,249,2.3,2.3,41,0.00,CLR,,0.00,WeatherDisplay:10.37,2013-03-14 23:29:00,
2013-03-14 16:34:00,84.1,57.2,30.00,West,259,2.3,2.3,40,0.00,CLR,,0.00,WeatherDisplay:10.37,2013-03-14 23:34:00,
2013-03-14 16:39:00,83.5,56.6,30.00,WSW,257,3.5,3.5,40,0.00,CLR,,0.00,WeatherDisplay:10.37,2013-03-14 23:39:00,
2013-03-14 16:44:00,83.3,57.1,30.00,WNW,288,2.3,2.3,41,0.00,CLR,,0.00,WeatherDisplay:10.37,2013-03-14 23:44:00,
2013-03-14 16:49:00,83.6,56.0,30.00,West,267,3.5,3.5,39,0.00,CLR,,0.00,WeatherDisplay:10.37,2013-03-14 23:49:00,
2013-03-14 16:54:00,83.8,55.5,30.00,SW,226,6.9,6.9,38,0.00,CLR,,0.00,WeatherDisplay:10.37,2013-03-14 23:54:00,
2013-03-14 16:59:00,84.1,56.5,30.00,SW,230,3.5,3.5,39,0.00,CLR,,0.00,WeatherDisplay:10.37,2013-03-14 23:59:00,
2013-03-14 17:04:00,84.2,56.6,30.00,NE,36,2.3,2.3,39,0.00,CLR,,0.00,WeatherDisplay:10.37,2013-03-15 00:04:00,
2013-03-14 17:09:00,84.0,56.4,30.00,West,277,1.2,1.2,39,0.00,CLR,,0.00,WeatherDisplay:10.37,2013-03-15 00:09:00,
2013-03-14 17:14:00,83.2,55.0,30.00,SE,138,2.3,2.3,38,0.00,CLR,,0.00,WeatherDisplay:10.37,2013-03-15 00:14:00,
2013-03-14 17:19:00,82.7,55.9,30.00,West,273,0.0,0.0,40,0.00,CLR,,0.00,WeatherDisplay:10.37,2013-03-15 00:19:00,
2013-03-14 17:24:00,82.4,55.7,30.00,WNW,284,2.0,2.0,40,0.00,CLR,,0.00,WeatherDisplay:10.37,2013-03-15 00:24:00,
2013-03-14 17:29:00,81.9,55.9,30.00,North,351,1.2,1.2,41,0.00,CLR,,0.00,WeatherDisplay:10.37,2013-03-15 00:29:00,
2013-03-14 17:34:00,81.7,56.4,30.00,NW,324,1.2,1.2,42,0.00,CLR,,0.00,WeatherDisplay:10.37,2013-03-15 00:34:00,
2013-03-14 17:39:00,81.4,56.1,30.00,WNW,294,1.2,1.2,42,0.00,CLR,,0.00,WeatherDisplay:10.37,2013-03-15 00:39:00,
2013-03-14 17:44:00,81.1,55.8,30.00,West,281,1.2,1.2,42,0.00,CLR,,0.00,WeatherDisplay:10.37,2013-03-15 00:44:00,
2013-03-14 17:49:00,80.9,56.3,30.00,NNE,21,3.5,3.5,43,0.00,CLR,,0.00,WeatherDisplay:10.37,2013-03-15 00:49:00,
2013-03-14 17:54:00,80.9,56.3,30.00,North,4,1.2,1.2,43,0.00,CLR,,0.00,WeatherDisplay:10.37,2013-03-15 00:54:00,
2013-03-14 17:59:00,81.1,56.5,30.00,WNW,290,1.2,1.2,43,0.00,CLR,,0.00,WeatherDisplay:10.37,2013-03-15 00:59:00,
2013-03-14 18:04:00,81.1,57.1,30.00,NW,325,2.3,2.3,44,0.00,CLR,,0.00,WeatherDisplay:10.37,2013-03-15 01:04:00,
2013-03-14 19:46:00,71.5,59.5,30.01,West,273,0.0,0.0,66,0.00,CLR,,0.00,WeatherDisplay:10.37,2013-03-15 02:46:00,
2013-03-14 19:52:00,71.0,59.5,30.01,West,273,0.0,0.0,67,0.00,CLR,,0.00,WeatherDisplay:10.37,2013-03-15 02:52:00,
2013-03-14 19:57:00,70.5,59.0,30.01,West,272,0.0,0.0,67,0.00,CLR,,0.00,WeatherDisplay:10.37,2013-03-15 02:57:00,
2013-03-14 20:02:00,70.0,59.0,30.01,West,273,0.0,0.0,68,0.00,CLR,,0.00,WeatherDisplay:10.37,2013-03-15 03:02:00,
2013-03-14 20:07:00,69.5,58.5,30.01,West,273,0.0,0.0,68,0.00,CLR,,0.00,WeatherDisplay:10.37,2013-03-15 03:07:00,
2013-03-14 20:12:00,69.0,58.4,30.01,West,273,0.0,0.0,69,0.00,CLR,,0.00,WeatherDisplay:10.37,2013-03-15 03:12:00,
2013-03-14 20:17:00,68.4,58.6,30.01,West,273,0.0,0.0,71,0.00,CLR,,0.00,WeatherDisplay:10.37,2013-03-15 03:17:00,
2013-03-14 20:22:00,68.0,58.6,30.02,West,273,0.0,0.0,72,0.00,CLR,,0.00,WeatherDisplay:10.37,2013-03-15 03:22:00,
2013-03-14 20:27:00,67.9,58.9,30.02,West,273,0.0,0.0,73,0.00,CLR,,0.00,WeatherDisplay:10.37,2013-03-15 03:27:00,
2013-03-14 20:32:00,67.9,59.3,30.02,West,273,0.0,0.0,74,0.00,CLR,,0.00,WeatherDisplay:10.37,2013-03-15 03:32:00,
2013-03-14 20:37:00,67.8,58.8,30.02,West,273,0.0,0.0,73,0.00,CLR,,0.00,WeatherDisplay:10.37,2013-03-15 03:37:00,
2013-03-14 20:42:00,67.6,59.0,30.02,West,273,0.0,0.0,74,0.00,CLR,,0.00,WeatherDisplay:10.37,2013-03-15 03:42:00,
2013-03-14 20:47:00,67.6,59.4,30.02,West,273,0.0,0.0,75,0.00,CLR,,0.00,WeatherDisplay:10.37,2013-03-15 03:47:00,
2013-03-14 20:52:00,67.6,59.8,30.02,West,273,0.0,0.0,76,0.00,CLR,,0.00,WeatherDisplay:10.37,2013-03-15 03:52:00,
2013-03-14 20:57:00,67.6,60.1,30.02,West,273,0.0,0.0,77,0.00,CLR,,0.00,WeatherDisplay:10.37,2013-03-15 03:57:00,
2013-03-14 21:00:00,67.6,60.1,30.02,West,273,0.0,0.0,77,0.00,CLR,,0.00,WeatherDisplay:10.37,2013-03-15 04:00:00,
2013-03-14 21:05:00,67.5,60.0,30.02,West,272,0.0,0.0,77,0.00,CLR,,0.00,WeatherDisplay:10.37,2013-03-15 04:05:00,
2013-03-14 21:10:00,67.5,60.0,30.02,West,272,0.0,0.0,77,0.00,CLR,,0.00,WeatherDisplay:10.37,2013-03-15 04:10:00,
2013-03-14 21:15:00,67.3,59.8,30.02,West,272,0.0,0.0,77,0.00,CLR,,0.00,WeatherDisplay:10.37,2013-03-15 04:15:00,
2013-03-14 21:20:00,67.1,59.6,30.03,West,273,0.0,0.0,77,0.00,CLR,,0.00,WeatherDisplay:10.37,2013-03-15 04:20:00,
2013-03-14 21:25:00,66.9,59.8,30.03,West,274,0.0,0.0,78,0.00,CLR,,0.00,WeatherDisplay:10.37,2013-03-15 04:25:00,
2013-03-14 21:30:00,66.7,59.6,30.03,West,272,0.0,0.0,78,0.00,CLR,,0.00,WeatherDisplay:10.37,2013-03-15 04:30:00,
2013-03-14 21:35:00,66.4,59.7,30.03,West,273,0.0,0.0,79,0.00,CLR,,0.00,WeatherDisplay:10.37,2013-03-15 04:35:00,
2013-03-14 21:40:00,66.2,59.8,30.03,West,273,0.0,0.0,80,0.00,CLR,,0.00,WeatherDisplay:10.37,2013-03-15 04:40:00,
2013-03-14 21:45:00,66.0,59.7,30.03,West,273,0.0,0.0,80,0.00,CLR,,0.00,WeatherDisplay:10.37,2013-03-15 04:45:00,
2013-03-14 21:50:00,65.8,59.8,30.03,West,273,0.0,0.0,81,0.00,CLR,,0.00,WeatherDisplay:10.37,2013-03-15 04:50:00,
2013-03-14 21:55:00,65.6,59.6,30.03,West,273,0.0,0.0,81,0.00,CLR,,0.00,WeatherDisplay:10.37,2013-03-15 04:55:00,
2013-03-14 22:00:00,65.3,59.3,30.03,West,273,0.0,0.0,81,0.00,CLR,,0.00,WeatherDisplay:10.37,2013-03-15 05:00:00,
2013-03-14 22:05:00,65.1,59.5,30.03,West,273,0.0,0.0,82,0.00,CLR,,0.00,WeatherDisplay:10.37,2013-03-15 05:05:00,
2013-03-14 22:10:00,64.9,59.3,30.03,West,273,0.0,0.0,82,0.00,CLR,,0.00,WeatherDisplay:10.37,2013-03-15 05:10:00,
2013-03-14 22:15:00,64.6,59.0,30.04,West,273,0.0,0.0,82,0.00,CLR,,0.00,WeatherDisplay:10.37,2013-03-15 05:15:00,
2013-03-14 22:20:00,64.4,58.8,30.04,West,273,0.0,0.0,82,0.00,CLR,,0.00,WeatherDisplay:10.37,2013-03-15 05:20:00,
2013-03-14 22:25:00,64.1,58.5,30.04,West,273,0.0,0.0,82,0.00,CLR,,0.00,WeatherDisplay:10.37,2013-03-15 05:25:00,
2013-03-14 22:30:00,63.9,58.3,30.04,West,273,0.0,0.0,82,0.00,CLR,,0.00,WeatherDisplay:10.37,2013-03-15 05:30:00,
2013-03-14 22:35:00,63.9,58.3,30.04,West,272,0.0,0.0,82,0.00,CLR,,0.00,WeatherDisplay:10.37,2013-03-15 05:35:00,
2013-03-14 22:40:00,63.7,58.1,30.04,West,273,0.0,0.0,82,0.00,CLR,,0.00,WeatherDisplay:10.37,2013-03-15 05:40:00,
2013-03-14 22:45:00,63.6,58.0,30.04,West,273,0.0,0.0,82,0.00,CLR,,0.00,WeatherDisplay:10.37,2013-03-15 05:45:00,
2013-03-14 22:50:00,63.5,57.9,30.04,West,273,0.0,0.0,82,0.00,CLR,,0.00,WeatherDisplay:10.37,2013-03-15 05:50:00,
2013-03-14 22:55:00,63.3,57.7,30.04,West,273,0.0,0.0,82,0.00,CLR,,0.00,WeatherDisplay:10.37,2013-03-15 05:55:00,
2013-03-14 23:00:00,63.1,57.5,30.04,West,272,0.0,0.0,82,0.00,CLR,,0.00,WeatherDisplay:10.37,2013-03-15 06:00:00,
2013-03-14 23:05:00,62.9,57.7,30.04,West,273,0.0,0.0,83,0.00,CLR,,0.00,WeatherDisplay:10.37,2013-03-15 06:05:00,
2013-03-14 23:10:00,62.8,57.6,30.04,West,273,0.0,0.0,83,0.00,CLR,,0.00,WeatherDisplay:10.37,2013-03-15 06:10:00,
2013-03-14 23:15:00,62.5,57.3,30.04,West,273,0.0,0.0,83,0.00,CLR,,0.00,WeatherDisplay:10.37,2013-03-15 06:15:00,
2013-03-14 23:20:00,62.4,57.2,30.04,West,272,0.0,0.0,83,0.00,CLR,,0.00,WeatherDisplay:10.37,2013-03-15 06:20:00,
2013-03-14 23:25:00,62.2,57.3,30.04,West,273,0.0,0.0,84,0.00,CLR,,0.00,WeatherDisplay:10.37,2013-03-15 06:25:00,
2013-03-14 23:30:00,62.4,57.8,30.04,West,273,0.0,0.0,85,0.00,CLR,,0.00,WeatherDisplay:10.37,2013-03-15 06:30:00,
2013-03-14 23:35:00,62.6,57.7,30.04,West,273,0.0,0.0,84,0.00,CLR,,0.00,WeatherDisplay:10.37,2013-03-15 06:35:00,
2013-03-14 23:40:00,62.6,57.7,30.04,West,273,0.0,0.0,84,0.00,CLR,,0.00,WeatherDisplay:10.37,2013-03-15 06:40:00,
2013-03-14 23:45:00,62.4,57.5,30.04,West,273,0.0,0.0,84,0.00,CLR,,0.00,WeatherDisplay:10.37,2013-03-15 06:45:00,
2013-03-14 23:50:00,62.2,57.0,30.04,West,273,0.0,0.0,83,0.00,CLR,,0.00,WeatherDisplay:10.37,2013-03-15 06:50:00,
2013-03-14 23:55:00,61.8,56.9,30.05,West,273,0.0,0.0,84,0.00,CLR,,0.00,WeatherDisplay:10.37,2013-03-15 06:55:00,